createdAt,value
2019-04-06T00:08:01.419Z,10.00
2019-04-06T00:18:03.470Z,10.10
2019-04-06T00:28:05.674Z,10.10
2019-04-06T00:38:07.781Z,10.20
2019-04-06T00:48:09.799Z,10.20
2019-04-06T00:58:11.748Z,10.20
2019-04-06T01:08:13.890Z,10.20
2019-04-06T01:18:17.374Z,10.30
2019-04-06T01:28:19.669Z,10.30
2019-04-06T01:38:21.685Z,10.30
2019-04-06T01:48:23.853Z,10.30
2019-04-06T01:58:27.337Z,10.40
2019-04-06T02:08:29.498Z,10.40
2019-04-06T02:18:31.514Z,10.50
2019-04-06T02:28:33.589Z,10.50
2019-04-06T02:38:35.605Z,10.50
2019-04-06T02:48:37.587Z,10.50
2019-04-06T02:58:39.560Z,10.50
2019-04-06T03:08:41.561Z,10.50
2019-04-06T03:18:43.582Z,10.50
2019-04-06T03:28:45.790Z,10.50
2019-04-06T03:38:47.841Z,10.50
2019-04-06T03:48:51.021Z,10.50
2019-04-06T03:58:53.153Z,10.50
2019-04-06T04:08:55.333Z,10.50
2019-04-06T04:18:58.104Z,10.50
2019-04-06T04:29:01.524Z,10.50
2019-04-06T04:39:05.929Z,10.50
2019-04-06T04:49:07.920Z,10.50
2019-04-06T04:59:10.184Z,10.40
2019-04-06T05:09:12.146Z,10.50
2019-04-06T05:19:16.275Z,10.50
2019-04-06T05:29:18.160Z,10.50
2019-04-06T05:39:20.140Z,10.70
2019-04-06T05:49:22.132Z,10.80
2019-04-06T05:59:24.068Z,11.00
2019-04-06T06:09:26.141Z,11.00
2019-04-06T06:19:28.124Z,11.30
2019-04-06T06:29:30.198Z,11.50
2019-04-06T06:39:32.164Z,11.70
2019-04-06T06:49:35.939Z,12.00
2019-04-06T06:59:37.962Z,12.00
2019-04-06T07:09:40.411Z,12.40
2019-04-06T07:19:42.370Z,12.80
2019-04-06T07:29:44.492Z,13.20
2019-04-06T07:39:46.609Z,13.40
2019-04-06T07:49:48.753Z,13.80
2019-04-06T07:59:50.971Z,14.00
2019-04-06T08:09:53.068Z,14.40
2019-04-06T08:19:55.167Z,14.60
2019-04-06T08:29:57.131Z,14.80
2019-04-06T08:39:59.059Z,15.20
2019-04-06T08:50:01.020Z,15.50
2019-04-06T09:00:03.971Z,15.60
2019-04-06T09:10:06.388Z,15.60
2019-04-06T09:20:08.764Z,16.00
2019-04-06T09:30:10.848Z,16.10
2019-04-06T09:40:13.099Z,16.80
2019-04-06T09:50:15.062Z,16.60
2019-04-06T10:00:17.635Z,16.00
2019-04-06T10:10:19.289Z,15.90
2019-04-06T10:20:21.333Z,17.10
2019-04-06T10:30:23.270Z,17.80
2019-04-06T10:40:25.501Z,17.80
2019-04-06T10:50:29.411Z,18.50
2019-04-06T11:00:31.507Z,19.00
2019-04-06T11:10:33.474Z,19.60
2019-04-06T11:20:35.651Z,19.70
2019-04-06T11:30:37.376Z,20.60
2019-04-06T11:40:39.783Z,21.30
2019-04-06T11:50:41.946Z,22.20
2019-04-06T12:00:43.952Z,26.00
2019-04-06T12:10:45.950Z,28.30
2019-04-06T12:20:48.345Z,29.40
2019-04-06T12:30:50.342Z,28.10
2019-04-06T12:40:52.690Z,24.90
2019-04-06T12:50:55.071Z,26.70
2019-04-06T13:00:57.119Z,23.50
2019-04-06T13:10:58.586Z,21.50
2019-04-06T13:21:01.171Z,22.20
2019-04-06T13:31:04.210Z,24.00
2019-04-06T13:41:06.663Z,22.40
2019-04-06T13:51:08.649Z,23.10
2019-04-06T14:01:16.118Z,23.00
2019-04-06T14:11:14.487Z,22.20
2019-04-06T14:21:15.925Z,20.70
2019-04-06T14:31:27.464Z,20.00
2019-04-06T14:41:21.951Z,20.00
2019-04-06T14:51:24.030Z,19.90
2019-04-06T15:01:40.409Z,19.80
2019-04-06T15:11:29.779Z,19.70
2019-04-06T15:21:31.768Z,19.10
2019-04-06T15:31:33.759Z,18.90
2019-04-06T15:41:35.711Z,20.50
2019-04-06T15:51:37.690Z,20.80
2019-04-06T16:01:39.648Z,20.60
2019-04-06T16:11:41.670Z,20.60
2019-04-06T16:21:43.717Z,20.30
2019-04-06T16:31:45.731Z,20.00
2019-04-06T16:41:48.262Z,19.80
2019-04-06T16:51:50.194Z,19.90
2019-04-06T17:01:52.257Z,19.60
2019-04-06T17:11:54.396Z,19.20
2019-04-06T17:21:56.559Z,18.60
2019-04-06T17:31:58.490Z,18.10
2019-04-06T17:42:01.109Z,17.60
2019-04-06T17:52:03.328Z,17.00
2019-04-06T18:02:05.812Z,16.60
2019-04-06T18:12:07.823Z,16.00
2019-04-06T18:22:10.030Z,15.60
2019-04-06T18:32:12.094Z,15.20
2019-04-06T18:42:14.239Z,14.90
2019-04-06T18:52:16.683Z,14.70
2019-04-06T19:02:19.035Z,14.50
2019-04-06T19:12:22.786Z,14.30
2019-04-06T19:22:25.163Z,14.10
2019-04-06T19:32:27.306Z,14.00
2019-04-06T19:42:29.681Z,13.90
2019-04-06T19:52:31.718Z,13.90
2019-04-06T20:02:33.951Z,13.80
2019-04-06T20:12:36.135Z,13.70
2019-04-06T20:22:38.231Z,13.60
2019-04-06T20:32:40.384Z,13.50
2019-04-06T20:42:42.278Z,13.50
2019-04-06T20:52:44.278Z,13.50
2019-04-06T21:02:46.248Z,13.60
2019-04-06T21:12:48.634Z,13.80
2019-04-06T21:22:50.768Z,13.90
2019-04-06T21:32:52.807Z,13.90
2019-04-06T21:42:54.847Z,13.90
2019-04-06T21:52:57.592Z,13.70
2019-04-06T22:02:59.750Z,13.50
2019-04-06T22:13:01.770Z,13.30
2019-04-06T22:23:03.868Z,13.20
2019-04-06T22:33:06.565Z,13.20
2019-04-06T22:43:08.167Z,13.10
2019-04-06T22:53:10.099Z,13.00
2019-04-06T23:03:13.123Z,12.90
2019-04-06T23:13:15.056Z,13.00
2019-04-06T23:23:17.643Z,12.90
2019-04-06T23:33:20.257Z,12.90
2019-04-06T23:43:22.286Z,13.00
2019-04-06T23:53:24.310Z,13.00
